Time;durP1;ratioP1;P1;durP2;ratioP2;P2;SDS_P1;SDS_P2;PMS_P1;PMS_P2;Temp;Humidity;BMP_temperature;BMP_pressure;BME280_temperature;BME280_humidity;BME280_pressure;Samples;Min_cycle;Max_cycle;Signal;HPM_P1;HPM_P2
2022/07/10 00:02:15;;;;;;;;;3.00;3.00;;;;;;;;4952224;28;8802;-77
2022/07/10 00:04:43;;;;;;;;;2.00;2.00;;;;;;;;4958135;28;8877;-77
2022/07/10 00:07:10;;;;;;;;;3.00;3.00;;;;;;;;4958670;28;8869;-78
2022/07/10 00:09:39;;;;;;;;;4.00;2.25;;;;;;;;4955372;28;8879;-77
2022/07/10 00:12:07;;;;;;;;;2.00;2.00;;;;;;;;4939883;28;8887;-77
2022/07/10 00:14:34;;;;;;;;;4.75;3.25;;;;;;;;4926713;28;8866;-76
2022/07/10 00:17:02;;;;;;;;;2.75;2.75;;;;;;;;4954375;28;8897;-77
2022/07/10 00:19:29;;;;;;;;;2.00;2.00;;;;;;;;4960586;28;8913;-77
2022/07/10 00:21:57;;;;;;;;;2.50;2.50;;;;;;;;4962495;28;8975;-77
2022/07/10 00:24:24;;;;;;;;;2.75;2.75;;;;;;;;4964846;28;8997;-77
2022/07/10 00:26:53;;;;;;;;;3.00;3.00;;;;;;;;4955805;28;8927;-77
2022/07/10 00:29:20;;;;;;;;;3.00;2.75;;;;;;;;4964831;28;8881;-77
2022/07/10 00:31:48;;;;;;;;;2.75;2.75;;;;;;;;4958682;28;8814;-77
2022/07/10 00:34:15;;;;;;;;;1.50;1.50;;;;;;;;4958157;28;8875;-78
2022/07/10 00:36:43;;;;;;;;;4.50;3.25;;;;;;;;4956565;28;8840;-77
2022/07/10 00:39:10;;;;;;;;;2.75;2.75;;;;;;;;4961425;28;8902;-77
2022/07/10 00:41:38;;;;;;;;;2.00;2.00;;;;;;;;4955488;28;8856;-78
2022/07/10 00:44:07;;;;;;;;;2.75;2.75;;;;;;;;4958446;28;8888;-77
2022/07/10 00:46:35;;;;;;;;;2.25;2.25;;;;;;;;4961592;28;8904;-77
2022/07/10 00:49:02;;;;;;;;;4.25;3.00;;;;;;;;4957811;28;8877;-77
2022/07/10 00:51:31;;;;;;;;;3.00;3.00;;;;;;;;4963420;28;8893;-77
2022/07/10 00:53:59;;;;;;;;;3.00;2.00;;;;;;;;4963304;28;9661;-77
2022/07/10 00:56:28;;;;;;;;;2.75;2.50;;;;;;;;4938696;28;9001;-77
2022/07/10 00:58:55;;;;;;;;;4.00;3.50;;;;;;;;4956029;28;8867;-77
2022/07/10 01:01:24;;;;;;;;;2.75;2.75;;;;;;;;4958277;28;8950;-78
2022/07/10 01:03:52;;;;;;;;;2.75;2.75;;;;;;;;4940465;28;9193;-76
2022/07/10 01:06:19;;;;;;;;;2.50;2.25;;;;;;;;4958059;28;9002;-78
2022/07/10 01:08:47;;;;;;;;;3.75;3.75;;;;;;;;4964973;28;8891;-79
2022/07/10 01:11:15;;;;;;;;;2.25;2.25;;;;;;;;4963106;28;8875;-78
2022/07/10 01:13:44;;;;;;;;;2.25;2.25;;;;;;;;4957668;28;9021;-79
2022/07/10 01:16:12;;;;;;;;;2.25;2.25;;;;;;;;4957588;28;8969;-77
2022/07/10 01:18:41;;;;;;;;;4.00;4.00;;;;;;;;4960385;28;8888;-77
2022/07/10 01:21:25;;;;;;;;;3.75;3.00;;;;;;;;4956371;28;8870;-78
2022/07/10 01:23:52;;;;;;;;;2.00;2.00;;;;;;;;4952307;28;8889;-78
2022/07/10 01:26:20;;;;;;;;;3.25;3.25;;;;;;;;4961866;28;9706;-78
2022/07/10 01:28:49;;;;;;;;;3.00;3.00;;;;;;;;4962871;28;8925;-78
2022/07/10 01:31:17;;;;;;;;;2.25;2.25;;;;;;;;4941520;28;9687;-78
2022/07/10 01:33:45;;;;;;;;;3.50;2.50;;;;;;;;4953541;28;8879;-79
2022/07/10 01:36:14;;;;;;;;;3.00;3.00;;;;;;;;4959872;28;8889;-77
2022/07/10 01:38:41;;;;;;;;;3.00;3.00;;;;;;;;4959185;28;8894;-78
2022/07/10 01:41:08;;;;;;;;;3.50;3.00;;;;;;;;4940591;28;8879;-77
2022/07/10 01:43:36;;;;;;;;;3.75;2.50;;;;;;;;4958111;28;8867;-77
2022/07/10 01:46:04;;;;;;;;;2.50;2.50;;;;;;;;4957336;28;9753;-77
2022/07/10 01:48:32;;;;;;;;;5.25;3.00;;;;;;;;4957755;28;8861;-77
2022/07/10 01:50:59;;;;;;;;;2.75;2.25;;;;;;;;4957949;28;8919;-77
2022/07/10 01:53:27;;;;;;;;;4.00;3.00;;;;;;;;4958942;28;8909;-77
2022/07/10 01:55:55;;;;;;;;;3.00;3.00;;;;;;;;4957018;28;8887;-77
2022/07/10 01:58:22;;;;;;;;;2.00;2.00;;;;;;;;4953916;28;8881;-77
2022/07/10 02:00:49;;;;;;;;;3.75;3.75;;;;;;;;4959742;28;8823;-78
2022/07/10 02:06:01;;;;;;;;;2.00;2.00;;;;;;;;4958274;28;8876;-77
2022/07/10 02:08:30;;;;;;;;;2.00;2.00;;;;;;;;4960235;28;8867;-77
2022/07/10 02:10:58;;;;;;;;;3.00;3.00;;;;;;;;4958706;28;8875;-77
2022/07/10 02:13:27;;;;;;;;;3.25;3.25;;;;;;;;4954189;28;9048;-79
2022/07/10 02:15:55;;;;;;;;;4.25;3.50;;;;;;;;4954547;28;8897;-79
2022/07/10 02:18:23;;;;;;;;;3.50;2.25;;;;;;;;4959577;28;8876;-78
2022/07/10 02:20:51;;;;;;;;;3.00;3.00;;;;;;;;4957243;28;8879;-77
2022/07/10 02:23:18;;;;;;;;;3.50;3.50;;;;;;;;4955992;28;9202;-78
2022/07/10 02:25:49;;;;;;;;;4.50;3.00;;;;;;;;4954297;28;8879;-78
2022/07/10 02:28:16;;;;;;;;;3.00;3.00;;;;;;;;4954790;28;8904;-79
2022/07/10 02:30:43;;;;;;;;;3.75;3.75;;;;;;;;4953205;28;8802;-78
2022/07/10 02:33:10;;;;;;;;;4.00;4.00;;;;;;;;4957262;28;9259;-78
2022/07/10 02:35:38;;;;;;;;;3.00;3.00;;;;;;;;4955980;28;8883;-78
2022/07/10 02:38:05;;;;;;;;;4.00;4.00;;;;;;;;4960854;28;8868;-77
2022/07/10 02:40:32;;;;;;;;;3.75;3.75;;;;;;;;4958952;28;8885;-77
2022/07/10 02:43:01;;;;;;;;;3.75;2.00;;;;;;;;4940649;28;8897;-78
2022/07/10 02:45:28;;;;;;;;;3.50;3.50;;;;;;;;4959005;28;8927;-77
2022/07/10 02:47:56;;;;;;;;;3.50;2.50;;;;;;;;4956228;28;8871;-77
2022/07/10 02:50:24;;;;;;;;;3.25;3.25;;;;;;;;4954449;28;8887;-77
2022/07/10 02:52:51;;;;;;;;;2.00;2.00;;;;;;;;4959389;28;8865;-77
2022/07/10 02:55:18;;;;;;;;;5.00;3.00;;;;;;;;4960775;28;8949;-78
2022/07/10 02:57:46;;;;;;;;;2.25;2.25;;;;;;;;4956753;28;8897;-78
2022/07/10 03:00:15;;;;;;;;;3.25;3.25;;;;;;;;4940583;28;8875;-78
2022/07/10 03:02:43;;;;;;;;;4.25;4.25;;;;;;;;4960183;28;9051;-77
2022/07/10 03:05:10;;;;;;;;;2.75;2.75;;;;;;;;4957494;28;8859;-78
2022/07/10 03:07:37;;;;;;;;;3.50;3.50;;;;;;;;4961440;28;8858;-75
2022/07/10 03:10:06;;;;;;;;;5.25;4.00;;;;;;;;4960274;28;8964;-76
2022/07/10 03:12:33;;;;;;;;;2.00;2.00;;;;;;;;4939032;28;8866;-75
2022/07/10 03:15:00;;;;;;;;;2.25;2.25;;;;;;;;4958419;28;8893;-78
2022/07/10 03:17:29;;;;;;;;;5.00;3.75;;;;;;;;4956446;28;8867;-77
2022/07/10 03:19:56;;;;;;;;;2.50;2.50;;;;;;;;4960272;28;8882;-77
2022/07/10 03:22:23;;;;;;;;;3.00;3.00;;;;;;;;4952225;28;8863;-76
2022/07/10 03:24:51;;;;;;;;;4.25;3.25;;;;;;;;4936760;28;8947;-76
2022/07/10 03:27:18;;;;;;;;;2.50;2.50;;;;;;;;4957908;28;8883;-76
2022/07/10 03:29:46;;;;;;;;;4.50;3.00;;;;;;;;4957417;28;8875;-76
2022/07/10 03:32:13;;;;;;;;;3.00;3.00;;;;;;;;4957247;28;8828;-76
2022/07/10 03:34:42;;;;;;;;;4.00;4.00;;;;;;;;4957043;28;9675;-76
2022/07/10 03:37:10;;;;;;;;;3.00;3.00;;;;;;;;4954106;28;8901;-76
2022/07/10 03:39:37;;;;;;;;;2.75;2.75;;;;;;;;4956062;28;8899;-79
2022/07/10 03:42:05;;;;;;;;;3.75;3.75;;;;;;;;4936744;28;8882;-78
2022/07/10 03:44:33;;;;;;;;;3.25;3.25;;;;;;;;4959981;28;8979;-78
2022/07/10 03:47:00;;;;;;;;;4.00;4.00;;;;;;;;4942802;28;8889;-78
2022/07/10 03:49:28;;;;;;;;;4.50;3.75;;;;;;;;4956074;28;8914;-77
2022/07/10 03:52:00;;;;;;;;;3.00;3.00;;;;;;;;4960015;28;8924;-78
2022/07/10 03:54:28;;;;;;;;;3.00;3.00;;;;;;;;4960609;28;8893;-78
2022/07/10 03:59:40;;;;;;;;;2.50;2.50;;;;;;;;4967191;28;8842;-78
2022/07/10 04:02:07;;;;;;;;;4.00;4.00;;;;;;;;4965734;28;8847;-77
2022/07/10 04:04:34;;;;;;;;;3.00;3.00;;;;;;;;4962017;28;8903;-77
2022/07/10 04:07:05;;;;;;;;;3.25;3.25;;;;;;;;4945261;28;8905;-77
2022/07/10 04:09:33;;;;;;;;;2.25;2.25;;;;;;;;4963583;28;8894;-78
2022/07/10 04:12:01;;;;;;;;;2.00;2.00;;;;;;;;4959886;28;9604;-78
2022/07/10 04:14:28;;;;;;;;;3.00;3.00;;;;;;;;4960603;28;10114;-78
2022/07/10 04:16:55;;;;;;;;;3.00;3.00;;;;;;;;4964417;28;8975;-78
2022/07/10 04:19:23;;;;;;;;;4.00;4.00;;;;;;;;4965072;28;8867;-78
2022/07/10 04:21:50;;;;;;;;;5.25;4.00;;;;;;;;4966160;28;8992;-78
2022/07/10 04:24:19;;;;;;;;;3.00;3.00;;;;;;;;4965686;28;8895;-77
2022/07/10 04:26:46;;;;;;;;;1.00;1.00;;;;;;;;4957299;28;8864;-77
2022/07/10 04:29:13;;;;;;;;;5.00;3.25;;;;;;;;4967865;28;8889;-77
2022/07/10 04:31:40;;;;;;;;;3.75;3.00;;;;;;;;4960701;28;8832;-78
2022/07/10 04:34:08;;;;;;;;;2.50;2.50;;;;;;;;4963079;28;8911;-78
2022/07/10 04:36:36;;;;;;;;;3.25;3.25;;;;;;;;4956779;28;8867;-78
2022/07/10 04:39:03;;;;;;;;;4.00;4.00;;;;;;;;4949738;28;8901;-78
2022/07/10 04:41:32;;;;;;;;;3.00;3.00;;;;;;;;4963468;28;8863;-77
2022/07/10 04:43:59;;;;;;;;;3.00;3.00;;;;;;;;4946359;28;8885;-78
2022/07/10 04:46:27;;;;;;;;;4.00;4.00;;;;;;;;4946072;28;8919;-77
2022/07/10 04:48:54;;;;;;;;;4.00;4.00;;;;;;;;4963436;28;8893;-77
2022/07/10 04:51:23;;;;;;;;;3.50;3.50;;;;;;;;4962085;28;8855;-77
2022/07/10 04:53:50;;;;;;;;;3.00;3.00;;;;;;;;4963963;28;8997;-80
2022/07/10 04:56:17;;;;;;;;;4.00;4.00;;;;;;;;4961697;28;8872;-78
2022/07/10 04:58:46;;;;;;;;;4.25;4.25;;;;;;;;4964502;28;8893;-79
2022/07/10 05:01:14;;;;;;;;;6.50;4.25;;;;;;;;4959541;28;8841;-77
2022/07/10 05:03:41;;;;;;;;;4.00;4.00;;;;;;;;4961285;28;9634;-78
2022/07/10 05:06:08;;;;;;;;;4.00;4.00;;;;;;;;4956942;28;8877;-78
2022/07/10 05:08:35;;;;;;;;;3.75;3.00;;;;;;;;4944680;28;8913;-76
2022/07/10 05:11:03;;;;;;;;;4.00;4.00;;;;;;;;4953984;28;9456;-78
2022/07/10 05:13:30;;;;;;;;;3.00;3.00;;;;;;;;4958259;28;8887;-79
2022/07/10 05:15:59;;;;;;;;;4.75;4.00;;;;;;;;4961913;28;8897;-79
2022/07/10 05:18:27;;;;;;;;;3.75;3.75;;;;;;;;4962867;28;8859;-78
2022/07/10 05:20:54;;;;;;;;;3.00;3.00;;;;;;;;4965341;28;9021;-78
2022/07/10 05:23:21;;;;;;;;;5.75;4.00;;;;;;;;4944017;28;8893;-76
2022/07/10 05:25:49;;;;;;;;;4.50;4.50;;;;;;;;4966408;28;8919;-77
2022/07/10 05:28:16;;;;;;;;;3.00;3.00;;;;;;;;4957030;28;8940;-76
2022/07/10 05:30:48;;;;;;;;;7.00;3.00;;;;;;;;4964315;28;8929;-76
2022/07/10 05:33:17;;;;;;;;;4.00;4.00;;;;;;;;4959514;28;8872;-75
2022/07/10 05:35:45;;;;;;;;;4.00;4.00;;;;;;;;4959237;28;9583;-77
2022/07/10 05:38:12;;;;;;;;;3.75;3.75;;;;;;;;4960157;28;9016;-78
2022/07/10 05:40:39;;;;;;;;;3.50;3.50;;;;;;;;4964188;28;8905;-77
2022/07/10 05:43:07;;;;;;;;;4.50;4.50;;;;;;;;4962295;28;9658;-78
2022/07/10 05:45:34;;;;;;;;;6.50;3.75;;;;;;;;4963786;28;8888;-77
2022/07/10 05:48:01;;;;;;;;;3.25;3.25;;;;;;;;4959371;28;8881;-76
2022/07/10 05:50:31;;;;;;;;;3.50;3.00;;;;;;;;4963975;28;8875;-79
2022/07/10 05:52:59;;;;;;;;;3.00;3.00;;;;;;;;4961778;28;8896;-76
2022/07/10 05:55:26;;;;;;;;;4.50;3.00;;;;;;;;4948889;28;8871;-79
2022/07/10 05:57:54;;;;;;;;;5.00;4.25;;;;;;;;4964197;28;9003;-80
2022/07/10 06:00:22;;;;;;;;;4.00;4.00;;;;;;;;4961177;28;8945;-81
2022/07/10 06:02:49;;;;;;;;;3.25;3.25;;;;;;;;4960873;28;8883;-83
2022/07/10 06:05:16;;;;;;;;;4.50;3.00;;;;;;;;4944242;28;8911;-75
2022/07/10 06:07:45;;;;;;;;;4.00;4.00;;;;;;;;4945005;28;8905;-79
2022/07/10 06:10:13;;;;;;;;;3.00;3.00;;;;;;;;4964070;28;8892;-76
2022/07/10 06:12:40;;;;;;;;;3.00;3.00;;;;;;;;4963945;28;8872;-77
2022/07/10 06:15:08;;;;;;;;;2.25;2.25;;;;;;;;4958842;28;9616;-79
2022/07/10 06:17:35;;;;;;;;;5.25;5.25;;;;;;;;4963066;28;8981;-81
2022/07/10 06:20:03;;;;;;;;;3.00;3.00;;;;;;;;4961049;28;8887;-78
2022/07/10 06:22:33;;;;;;;;;3.00;3.00;;;;;;;;4971396;28;8888;-80
2022/07/10 06:25:04;;;;;;;;;6.00;4.00;;;;;;;;4961267;28;8854;-78
2022/07/10 06:27:32;;;;;;;;;3.25;3.25;;;;;;;;4960002;28;8917;-80
2022/07/10 06:29:59;;;;;;;;;3.00;3.00;;;;;;;;4962292;28;8867;-77
2022/07/10 06:32:27;;;;;;;;;4.75;4.75;;;;;;;;4962791;28;8832;-81
2022/07/10 06:34:55;;;;;;;;;3.00;3.00;;;;;;;;4963059;28;9002;-81
2022/07/10 06:37:23;;;;;;;;;4.00;4.00;;;;;;;;4949197;28;8880;-80
2022/07/10 06:39:52;;;;;;;;;3.75;3.75;;;;;;;;4963959;28;8897;-78
2022/07/10 06:42:21;;;;;;;;;4.00;4.00;;;;;;;;4960866;28;8870;-82
2022/07/10 06:44:48;;;;;;;;;4.25;3.75;;;;;;;;4967113;28;8908;-78
2022/07/10 06:50:02;;;;;;;;;2.00;2.00;;;;;;;;4967573;28;8859;-82
2022/07/10 06:52:31;;;;;;;;;2.75;2.00;;;;;;;;4963614;28;8895;-80
2022/07/10 06:54:59;;;;;;;;;2.50;2.50;;;;;;;;4957169;28;8893;-79
2022/07/10 06:57:28;;;;;;;;;2.00;2.00;;;;;;;;4939566;28;8956;-79
2022/07/10 06:59:55;;;;;;;;;2.50;2.00;;;;;;;;4939017;28;8989;-80
2022/07/10 07:02:23;;;;;;;;;3.00;3.00;;;;;;;;4940523;28;8859;-80
2022/07/10 07:04:50;;;;;;;;;4.50;2.75;;;;;;;;4960983;28;8863;-81
2022/07/10 07:07:18;;;;;;;;;3.25;3.25;;;;;;;;4957629;28;8851;-82
2022/07/10 07:09:49;;;;;;;;;4.25;3.00;;;;;;;;4960702;28;8916;-82
2022/07/10 07:12:18;;;;;;;;;3.00;3.00;;;;;;;;4954242;28;8872;-79
2022/07/10 07:14:46;;;;;;;;;2.50;1.75;;;;;;;;4955271;28;8871;-79
2022/07/10 07:17:21;;;;;;;;;2.00;2.00;;;;;;;;4952911;28;8894;-84
2022/07/10 07:25:19;;;;;;;;;1.00;1.00;;;;;;;;4957412;28;8844;-85
2022/07/10 07:27:46;;;;;;;;;3.00;3.00;;;;;;;;4940580;28;8852;-87
2022/07/10 07:30:16;;;;;;;;;3.00;3.00;;;;;;;;4956278;28;9014;-87
2022/07/10 07:32:45;;;;;;;;;4.00;3.00;;;;;;;;4956112;28;8907;-86
2022/07/10 07:35:14;;;;;;;;;2.50;2.00;;;;;;;;4955744;28;8888;-82
2022/07/10 07:37:42;;;;;;;;;3.00;3.00;;;;;;;;4956266;28;8899;-77
2022/07/10 07:40:11;;;;;;;;;2.00;2.00;;;;;;;;4953477;28;9690;-81
2022/07/10 07:42:40;;;;;;;;;1.00;1.00;;;;;;;;4958984;28;9745;-79
2022/07/10 07:45:09;;;;;;;;;2.00;2.00;;;;;;;;4952630;28;8866;-79
2022/07/10 07:47:46;;;;;;;;;2.25;2.00;;;;;;;;4954695;28;8885;-81
2022/07/10 07:50:14;;;;;;;;;1.00;1.00;;;;;;;;4957232;28;8933;-82
2022/07/10 07:52:41;;;;;;;;;1.00;1.00;;;;;;;;4960260;28;9757;-86
2022/07/10 07:55:10;;;;;;;;;3.00;2.00;;;;;;;;4961919;28;8930;-79
2022/07/10 07:57:37;;;;;;;;;4.00;2.25;;;;;;;;4937375;28;8874;-81
2022/07/10 08:00:06;;;;;;;;;0.00;0.00;;;;;;;;4956578;28;8990;-86
2022/07/10 08:02:34;;;;;;;;;2.00;2.00;;;;;;;;4957550;28;8955;-77
2022/07/10 08:05:04;;;;;;;;;3.50;3.50;;;;;;;;4957187;28;8899;-81
2022/07/10 08:07:35;;;;;;;;;3.00;2.20;;;;;;;;4957301;28;8877;-78
2022/07/10 08:10:04;;;;;;;;;2.80;2.80;;;;;;;;4936073;28;8981;-87
2022/07/10 08:12:32;;;;;;;;;1.00;0.00;;;;;;;;4954025;28;9718;-86
2022/07/10 08:14:59;;;;;;;;;2.20;1.60;;;;;;;;4957315;28;8866;-81
2022/07/10 08:17:27;;;;;;;;;2.00;1.20;;;;;;;;4955641;28;8883;-83
2022/07/10 08:19:55;;;;;;;;;1.60;1.60;;;;;;;;4960869;28;8957;-78
2022/07/10 08:22:24;;;;;;;;;1.80;1.80;;;;;;;;4951848;28;8883;-83
2022/07/10 08:24:51;;;;;;;;;2.00;1.00;;;;;;;;4956438;28;8895;-80
2022/07/10 08:27:18;;;;;;;;;2.20;1.00;;;;;;;;4955814;28;10054;-81
2022/07/10 08:29:46;;;;;;;;;1.00;1.00;;;;;;;;4958566;28;8891;-80
2022/07/10 08:32:13;;;;;;;;;1.80;1.80;;;;;;;;4961770;28;9022;-81
2022/07/10 08:34:41;;;;;;;;;1.00;1.00;;;;;;;;4943398;28;9687;-81
2022/07/10 08:37:08;;;;;;;;;1.00;1.00;;;;;;;;4957760;28;9706;-81
2022/07/10 08:39:37;;;;;;;;;0.80;0.80;;;;;;;;4954955;28;8863;-81
2022/07/10 08:42:06;;;;;;;;;1.00;1.00;;;;;;;;4957410;28;8871;-82
2022/07/10 08:44:34;;;;;;;;;1.00;1.00;;;;;;;;4946513;28;8883;-81
2022/07/10 08:47:02;;;;;;;;;1.00;1.00;;;;;;;;4958949;28;8899;-81
2022/07/10 08:49:30;;;;;;;;;1.00;1.00;;;;;;;;4962977;28;8895;-80
2022/07/10 08:52:00;;;;;;;;;2.20;2.20;;;;;;;;4961310;28;8977;-81
2022/07/10 08:54:29;;;;;;;;;2.00;2.00;;;;;;;;4968522;28;8883;-81
2022/07/10 08:57:00;;;;;;;;;2.00;2.00;;;;;;;;4961896;28;8894;-81
2022/07/10 08:59:28;;;;;;;;;1.00;1.00;;;;;;;;4967732;28;9497;-81
2022/07/10 09:01:55;;;;;;;;;1.20;1.20;;;;;;;;4960960;28;9697;-79
2022/07/10 09:04:25;;;;;;;;;1.00;1.00;;;;;;;;4964168;28;8908;-79
2022/07/10 09:06:53;;;;;;;;;2.00;2.00;;;;;;;;4942298;28;8916;-78
2022/07/10 09:09:21;;;;;;;;;1.80;1.80;;;;;;;;4964528;28;8857;-79
2022/07/10 09:11:49;;;;;;;;;1.00;1.00;;;;;;;;4964524;28;8855;-76
2022/07/10 09:14:22;;;;;;;;;3.60;3.60;;;;;;;;4963744;28;8875;-76
2022/07/10 09:16:53;;;;;;;;;3.20;1.60;;;;;;;;4956364;28;8973;-78
2022/07/10 09:19:22;;;;;;;;;1.00;1.00;;;;;;;;4960483;28;9007;-79
2022/07/10 09:21:51;;;;;;;;;0.60;0.60;;;;;;;;4948677;28;8959;-83
2022/07/10 09:24:20;;;;;;;;;1.40;1.40;;;;;;;;4961600;28;8932;-77
2022/07/10 09:27:00;;;;;;;;;0.80;0.80;;;;;;;;4963662;28;8897;-80
2022/07/10 09:29:29;;;;;;;;;1.00;1.00;;;;;;;;4964391;28;8854;-79
2022/07/10 09:31:58;;;;;;;;;2.00;0.40;;;;;;;;4958058;28;8833;-79
2022/07/10 09:34:40;;;;;;;;;0.60;0.60;;;;;;;;4958964;28;8875;-81
2022/07/10 09:37:22;;;;;;;;;0.80;0.80;;;;;;;;4957793;28;8859;-80
2022/07/10 09:40:00;;;;;;;;;3.60;2.00;;;;;;;;4955731;28;8893;-78
2022/07/10 09:42:31;;;;;;;;;1.60;0.20;;;;;;;;4952146;28;8894;-81
2022/07/10 09:45:18;;;;;;;;;0.80;0.80;;;;;;;;4956601;28;8864;-78
2022/07/10 09:47:46;;;;;;;;;0.60;0.60;;;;;;;;4954957;28;8885;-81
2022/07/10 09:50:27;;;;;;;;;3.00;2.40;;;;;;;;4954306;28;9628;-79
2022/07/10 09:52:55;;;;;;;;;2.20;1.40;;;;;;;;4959914;28;8891;-77
2022/07/10 09:55:30;;;;;;;;;1.60;1.60;;;;;;;;4959812;28;8908;-77
2022/07/10 09:57:58;;;;;;;;;4.00;2.80;;;;;;;;4955153;28;8890;-78
2022/07/10 10:00:29;;;;;;;;;0.60;0.60;;;;;;;;4957583;28;8893;-80
2022/07/10 10:02:58;;;;;;;;;1.20;1.20;;;;;;;;4957793;28;8879;-83
2022/07/10 10:05:34;;;;;;;;;2.20;1.00;;;;;;;;4962700;28;8903;-77
2022/07/10 10:08:05;;;;;;;;;1.00;1.00;;;;;;;;4958349;28;8898;-80
2022/07/10 10:10:33;;;;;;;;;8.60;7.20;;;;;;;;4942702;28;8883;-75
2022/07/10 10:13:05;;;;;;;;;10.00;10.00;;;;;;;;4938533;28;8891;-78
2022/07/10 10:15:34;;;;;;;;;5.60;5.60;;;;;;;;4961761;28;9070;-81
2022/07/10 10:18:02;;;;;;;;;5.40;5.40;;;;;;;;4943221;28;8863;-79
2022/07/10 10:20:41;;;;;;;;;4.60;4.60;;;;;;;;4960262;28;9009;-81
2022/07/10 10:23:11;;;;;;;;;1.80;1.80;;;;;;;;4964487;28;8872;-88
2022/07/10 10:25:39;;;;;;;;;1.00;1.00;;;;;;;;4941680;28;9010;-81
2022/07/10 10:28:08;;;;;;;;;1.80;1.80;;;;;;;;4944002;28;8905;-78
2022/07/10 10:30:40;;;;;;;;;1.00;1.00;;;;;;;;4956083;28;8819;-80
2022/07/10 10:33:42;;;;;;;;;1.40;1.40;;;;;;;;4960290;28;8902;-82
2022/07/10 10:36:11;;;;;;;;;1.00;1.00;;;;;;;;4959248;28;8907;-82
2022/07/10 10:39:06;;;;;;;;;0.80;0.80;;;;;;;;4952383;28;8855;-85
2022/07/10 10:41:39;;;;;;;;;1.40;0.80;;;;;;;;4948186;28;8874;-82
2022/07/10 10:44:28;;;;;;;;;0.80;0.80;;;;;;;;4964068;28;8893;-83
2022/07/10 10:47:09;;;;;;;;;0.20;0.20;;;;;;;;4968422;28;8883;-83
2022/07/10 10:49:53;;;;;;;;;0.80;0.80;;;;;;;;4944042;28;8863;-83
2022/07/10 10:52:22;;;;;;;;;0.20;0.20;;;;;;;;4958378;28;9588;-84
2022/07/10 10:55:08;;;;;;;;;0.00;0.00;;;;;;;;4962155;28;9037;-85
2022/07/10 10:57:48;;;;;;;;;2.00;1.00;;;;;;;;4965477;28;9664;-85
2022/07/10 11:00:48;;;;;;;;;1.80;1.80;;;;;;;;4941471;28;8886;-84
2022/07/10 11:06:14;;;;;;;;;1.80;1.80;;;;;;;;4960191;28;8984;-87
2022/07/10 11:08:44;;;;;;;;;0.40;0.40;;;;;;;;4959604;28;8885;-84
2022/07/10 11:11:40;;;;;;;;;0.00;0.00;;;;;;;;4963730;28;8893;-83
2022/07/10 11:14:09;;;;;;;;;0.00;0.00;;;;;;;;4943198;28;8969;-81
2022/07/10 11:16:39;;;;;;;;;0.60;0.60;;;;;;;;4960299;28;8867;-84
2022/07/10 11:19:10;;;;;;;;;0.20;0.20;;;;;;;;4960729;28;8864;-90
2022/07/10 11:21:50;;;;;;;;;0.60;0.60;;;;;;;;4959200;28;9041;-87
2022/07/10 11:24:35;;;;;;;;;1.60;0.00;;;;;;;;4963283;28;8923;-87
2022/07/10 11:27:12;;;;;;;;;1.20;0.80;;;;;;;;4939912;28;8869;-84
2022/07/10 11:29:39;;;;;;;;;0.80;0.80;;;;;;;;4958808;28;8879;-81
2022/07/10 11:32:07;;;;;;;;;0.00;0.00;;;;;;;;4964278;28;8863;-80
2022/07/10 11:34:39;;;;;;;;;5.80;5.80;;;;;;;;4941996;28;8879;-77
2022/07/10 11:37:16;;;;;;;;;0.60;0.60;;;;;;;;4955383;28;9664;-79
2022/07/10 11:39:43;;;;;;;;;0.40;0.40;;;;;;;;4963876;28;9663;-77
2022/07/10 11:42:11;;;;;;;;;0.80;0.80;;;;;;;;4962450;28;8865;-79
2022/07/10 11:44:38;;;;;;;;;3.40;3.40;;;;;;;;4964484;28;8905;-79
2022/07/10 11:47:07;;;;;;;;;1.00;1.00;;;;;;;;4957152;28;8875;-81
2022/07/10 11:49:35;;;;;;;;;0.80;0.80;;;;;;;;4958913;28;8882;-84
2022/07/10 11:52:05;;;;;;;;;0.00;0.00;;;;;;;;4963150;28;8966;-79
2022/07/10 11:54:33;;;;;;;;;0.00;0.00;;;;;;;;4957458;28;8865;-76
2022/07/10 11:57:08;;;;;;;;;0.00;0.00;;;;;;;;4955491;28;8919;-76
2022/07/10 11:59:35;;;;;;;;;0.00;0.00;;;;;;;;4959518;28;8889;-80
2022/07/10 12:02:03;;;;;;;;;2.80;1.00;;;;;;;;4950666;28;8895;-75
2022/07/10 12:04:32;;;;;;;;;2.00;0.20;;;;;;;;4962981;28;8879;-76
2022/07/10 12:07:01;;;;;;;;;0.00;0.00;;;;;;;;4958674;28;9102;-77
2022/07/10 12:09:30;;;;;;;;;0.00;0.00;;;;;;;;4960362;28;8887;-79
2022/07/10 12:12:02;;;;;;;;;11.20;9.20;;;;;;;;4960563;28;8873;-77
2022/07/10 12:14:29;;;;;;;;;0.80;0.80;;;;;;;;4959120;28;8918;-78
2022/07/10 12:16:58;;;;;;;;;1.00;1.00;;;;;;;;4958022;28;8995;-80
2022/07/10 12:19:32;;;;;;;;;0.00;0.00;;;;;;;;4966709;28;8992;-86
2022/07/10 12:22:01;;;;;;;;;0.00;0.00;;;;;;;;4960836;28;8879;-82
2022/07/10 12:24:30;;;;;;;;;0.00;0.00;;;;;;;;4946086;28;9038;-82
2022/07/10 12:26:58;;;;;;;;;0.00;0.00;;;;;;;;4969181;28;8879;-80
2022/07/10 12:29:27;;;;;;;;;1.00;1.00;;;;;;;;4963042;28;8886;-81
2022/07/10 12:31:57;;;;;;;;;4.80;4.80;;;;;;;;4964534;28;8852;-84
2022/07/10 12:34:34;;;;;;;;;0.00;0.00;;;;;;;;4962574;28;8891;-84
2022/07/10 12:37:08;;;;;;;;;0.20;0.20;;;;;;;;4961355;28;8879;-85
2022/07/10 12:39:39;;;;;;;;;0.00;0.00;;;;;;;;4970251;28;8879;-79
2022/07/10 12:42:07;;;;;;;;;0.00;0.00;;;;;;;;4959707;28;8985;-82
2022/07/10 12:44:37;;;;;;;;;1.60;1.60;;;;;;;;4963015;28;8914;-80
2022/07/10 12:47:08;;;;;;;;;0.00;0.00;;;;;;;;4955670;28;8883;-88
2022/07/10 12:49:51;;;;;;;;;1.00;1.00;;;;;;;;4959510;28;8933;-79
2022/07/10 12:52:29;;;;;;;;;1.00;1.00;;;;;;;;4961115;28;8903;-82
2022/07/10 12:55:13;;;;;;;;;0.00;0.00;;;;;;;;4940950;28;8898;-79
2022/07/10 12:57:53;;;;;;;;;0.00;0.00;;;;;;;;4955381;28;9698;-79
2022/07/10 13:00:22;;;;;;;;;4.80;3.20;;;;;;;;4942125;28;8893;-82
2022/07/10 13:02:52;;;;;;;;;0.60;0.00;;;;;;;;4959826;28;8875;-86
2022/07/10 13:05:30;;;;;;;;;0.00;0.00;;;;;;;;4959699;28;8986;-80
2022/07/10 13:08:24;;;;;;;;;0.00;0.00;;;;;;;;4954832;28;8881;-83
2022/07/10 13:10:58;;;;;;;;;0.00;0.00;;;;;;;;4942926;28;8911;-80
2022/07/10 13:13:26;;;;;;;;;0.00;0.00;;;;;;;;4958935;28;8847;-81
2022/07/10 13:15:56;;;;;;;;;0.00;0.00;;;;;;;;4939175;28;9008;-80
2022/07/10 13:18:32;;;;;;;;;0.00;0.00;;;;;;;;4954724;28;8940;-83
2022/07/10 13:21:02;;;;;;;;;0.60;0.60;;;;;;;;4955957;28;8873;-82
2022/07/10 13:23:30;;;;;;;;;0.00;0.00;;;;;;;;4959182;28;8935;-79
2022/07/10 13:26:06;;;;;;;;;0.00;0.00;;;;;;;;4959216;28;9014;-82
2022/07/10 13:28:35;;;;;;;;;1.00;0.00;;;;;;;;4959960;28;8863;-79
2022/07/10 13:31:03;;;;;;;;;0.00;0.00;;;;;;;;4957820;28;8835;-77
2022/07/10 13:33:31;;;;;;;;;0.00;0.00;;;;;;;;4958790;28;8885;-83
2022/07/10 13:36:01;;;;;;;;;1.00;1.00;;;;;;;;4956920;28;9766;-80
2022/07/10 13:38:29;;;;;;;;;0.00;0.00;;;;;;;;4961796;28;8905;-81
2022/07/10 13:40:56;;;;;;;;;0.00;0.00;;;;;;;;4964494;28;8907;-80
2022/07/10 13:43:28;;;;;;;;;0.00;0.00;;;;;;;;4958072;28;8892;-81
2022/07/10 13:45:59;;;;;;;;;0.00;0.00;;;;;;;;4960802;28;8879;-79
2022/07/10 13:48:26;;;;;;;;;0.00;0.00;;;;;;;;4958821;28;8949;-79
2022/07/10 13:50:54;;;;;;;;;0.00;0.00;;;;;;;;4961437;28;8888;-80
2022/07/10 13:53:22;;;;;;;;;0.00;0.00;;;;;;;;4958698;28;8843;-80
2022/07/10 13:55:58;;;;;;;;;0.00;0.00;;;;;;;;4961787;28;8909;-80
2022/07/10 13:58:28;;;;;;;;;0.00;0.00;;;;;;;;4963139;28;8871;-79
2022/07/10 14:01:08;;;;;;;;;0.00;0.00;;;;;;;;4950831;28;8830;-83
2022/07/10 14:03:35;;;;;;;;;0.00;0.00;;;;;;;;4957906;28;8890;-82
2022/07/10 14:06:03;;;;;;;;;0.00;0.00;;;;;;;;4957567;28;8881;-78
2022/07/10 14:08:31;;;;;;;;;0.00;0.00;;;;;;;;4955446;28;8912;-78
2022/07/10 14:10:58;;;;;;;;;0.00;0.00;;;;;;;;4966855;28;8859;-81
2022/07/10 14:13:31;;;;;;;;;0.00;0.00;;;;;;;;4960504;28;8941;-79
2022/07/10 14:15:58;;;;;;;;;0.00;0.00;;;;;;;;4955290;28;8885;-85
2022/07/10 14:18:41;;;;;;;;;0.00;0.00;;;;;;;;4957108;28;8885;-79
2022/07/10 14:21:09;;;;;;;;;0.00;0.00;;;;;;;;4962109;28;8905;-79
2022/07/10 14:23:44;;;;;;;;;0.00;0.00;;;;;;;;4960606;28;9600;-79
2022/07/10 14:26:12;;;;;;;;;0.00;0.00;;;;;;;;4962869;28;8880;-89
2022/07/10 14:28:42;;;;;;;;;0.60;0.00;;;;;;;;4962678;28;8990;-84
2022/07/10 14:31:10;;;;;;;;;2.00;0.80;;;;;;;;4944853;28;8832;-83
2022/07/10 14:33:38;;;;;;;;;0.00;0.00;;;;;;;;4961298;28;8868;-87
2022/07/10 14:36:06;;;;;;;;;0.00;0.00;;;;;;;;4964648;28;8918;-82
2022/07/10 14:38:33;;;;;;;;;0.00;0.00;;;;;;;;4962987;28;8886;-83
2022/07/10 14:41:01;;;;;;;;;0.00;0.00;;;;;;;;4945099;28;8878;-81
2022/07/10 14:43:31;;;;;;;;;0.00;0.00;;;;;;;;4958338;28;8951;-83
2022/07/10 14:46:03;;;;;;;;;0.00;0.00;;;;;;;;4955676;28;8861;-82
2022/07/10 14:48:31;;;;;;;;;0.00;0.00;;;;;;;;4955459;28;8914;-78
2022/07/10 14:50:59;;;;;;;;;2.00;0.00;;;;;;;;4957232;28;8937;-82
2022/07/10 14:53:26;;;;;;;;;0.00;0.00;;;;;;;;4962363;28;8983;-82
2022/07/10 14:55:54;;;;;;;;;0.00;0.00;;;;;;;;4960916;28;9772;-81
2022/07/10 14:58:21;;;;;;;;;0.00;0.00;;;;;;;;4955041;28;8873;-87
2022/07/10 15:00:49;;;;;;;;;0.00;0.00;;;;;;;;4959444;28;8842;-82
2022/07/10 15:03:18;;;;;;;;;0.00;0.00;;;;;;;;4945012;28;8877;-79
2022/07/10 15:05:45;;;;;;;;;0.00;0.00;;;;;;;;4957125;28;8886;-81
2022/07/10 15:08:12;;;;;;;;;1.60;0.80;;;;;;;;4960931;28;8925;-88
2022/07/10 15:10:42;;;;;;;;;0.00;0.00;;;;;;;;4959751;28;8867;-82
2022/07/10 15:13:09;;;;;;;;;0.00;0.00;;;;;;;;4954576;28;8897;-85
2022/07/10 15:15:36;;;;;;;;;0.00;0.00;;;;;;;;4955817;28;8860;-82
2022/07/10 15:18:04;;;;;;;;;0.00;0.00;;;;;;;;4959334;28;8867;-84
2022/07/10 15:20:32;;;;;;;;;1.00;1.00;;;;;;;;4954882;28;8866;-79
2022/07/10 15:23:00;;;;;;;;;0.60;0.60;;;;;;;;4952660;28;9649;-83
2022/07/10 15:25:28;;;;;;;;;0.20;0.20;;;;;;;;4958253;28;8893;-82
2022/07/10 15:27:57;;;;;;;;;0.00;0.00;;;;;;;;4960098;28;8876;-80